sensor_id;sensor_type;location;lat;lon;timestamp;P1;durP1;ratioP1;P2;durP2;ratioP2
7573;SDS011;3828;48.922;9.116;2023-05-07T00:01:15;0.90;;;0.90;;
7573;SDS011;3828;48.922;9.116;2023-05-07T00:03:42;0.90;;;0.90;;
7573;SDS011;3828;48.922;9.116;2023-05-07T00:06:09;0.90;;;0.90;;
7573;SDS011;3828;48.922;9.116;2023-05-07T00:08:37;1.10;;;1.10;;
7573;SDS011;3828;48.922;9.116;2023-05-07T00:11:04;0.73;;;0.73;;
7573;SDS011;3828;48.922;9.116;2023-05-07T00:13:31;0.90;;;0.90;;
7573;SDS011;3828;48.922;9.116;2023-05-07T00:16:02;0.90;;;0.90;;
7573;SDS011;3828;48.922;9.116;2023-05-07T00:18:29;1.20;;;1.20;;
7573;SDS011;3828;48.922;9.116;2023-05-07T00:20:56;0.80;;;0.80;;
7573;SDS011;3828;48.922;9.116;2023-05-07T00:23:23;0.80;;;0.80;;
7573;SDS011;3828;48.922;9.116;2023-05-07T00:25:50;1.17;;;1.17;;
7573;SDS011;3828;48.922;9.116;2023-05-07T00:28:21;0.80;;;0.80;;
7573;SDS011;3828;48.922;9.116;2023-05-07T00:30:50;1.10;;;1.10;;
7573;SDS011;3828;48.922;9.116;2023-05-07T00:33:23;1.07;;;1.07;;
7573;SDS011;3828;48.922;9.116;2023-05-07T00:35:52;0.90;;;0.90;;
7573;SDS011;3828;48.922;9.116;2023-05-07T00:38:20;0.80;;;0.80;;
7573;SDS011;3828;48.922;9.116;2023-05-07T00:40:50;1.00;;;1.00;;
7573;SDS011;3828;48.922;9.116;2023-05-07T00:43:17;0.80;;;0.80;;
7573;SDS011;3828;48.922;9.116;2023-05-07T00:45:45;0.97;;;0.97;;
7573;SDS011;3828;48.922;9.116;2023-05-07T00:48:12;1.13;;;1.13;;
7573;SDS011;3828;48.922;9.116;2023-05-07T00:50:41;0.90;;;0.90;;
7573;SDS011;3828;48.922;9.116;2023-05-07T00:53:08;1.20;;;1.20;;
7573;SDS011;3828;48.922;9.116;2023-05-07T00:55:39;1.00;;;1.00;;
7573;SDS011;3828;48.922;9.116;2023-05-07T00:58:06;0.80;;;0.80;;
7573;SDS011;3828;48.922;9.116;2023-05-07T01:00:33;0.90;;;0.90;;
7573;SDS011;3828;48.922;9.116;2023-05-07T01:03:01;1.10;;;1.10;;
7573;SDS011;3828;48.922;9.116;2023-05-07T01:05:29;1.00;;;1.00;;
7573;SDS011;3828;48.922;9.116;2023-05-07T01:07:58;1.07;;;1.07;;
7573;SDS011;3828;48.922;9.116;2023-05-07T01:10:27;0.90;;;0.90;;
7573;SDS011;3828;48.922;9.116;2023-05-07T01:12:57;1.10;;;1.10;;
7573;SDS011;3828;48.922;9.116;2023-05-07T01:15:25;0.83;;;0.83;;
7573;SDS011;3828;48.922;9.116;2023-05-07T01:17:52;0.90;;;0.90;;
7573;SDS011;3828;48.922;9.116;2023-05-07T01:20:19;1.00;;;1.00;;
7573;SDS011;3828;48.922;9.116;2023-05-07T01:22:48;1.07;;;1.07;;
7573;SDS011;3828;48.922;9.116;2023-05-07T01:25:16;1.00;;;1.00;;
7573;SDS011;3828;48.922;9.116;2023-05-07T01:27:43;1.10;;;1.10;;
7573;SDS011;3828;48.922;9.116;2023-05-07T01:30:11;1.40;;;1.40;;
7573;SDS011;3828;48.922;9.116;2023-05-07T01:32:40;1.20;;;1.20;;
7573;SDS011;3828;48.922;9.116;2023-05-07T01:35:09;0.93;;;0.93;;
7573;SDS011;3828;48.922;9.116;2023-05-07T01:37:39;1.00;;;1.00;;
7573;SDS011;3828;48.922;9.116;2023-05-07T01:40:09;1.00;;;1.00;;
7573;SDS011;3828;48.922;9.116;2023-05-07T01:42:36;0.80;;;0.80;;
7573;SDS011;3828;48.922;9.116;2023-05-07T01:45:04;1.10;;;1.10;;
7573;SDS011;3828;48.922;9.116;2023-05-07T01:47:31;0.90;;;0.90;;
7573;SDS011;3828;48.922;9.116;2023-05-07T01:49:59;1.27;;;1.27;;
7573;SDS011;3828;48.922;9.116;2023-05-07T01:52:27;1.00;;;1.00;;
7573;SDS011;3828;48.922;9.116;2023-05-07T01:54:55;1.10;;;1.10;;
7573;SDS011;3828;48.922;9.116;2023-05-07T01:57:23;1.27;;;1.27;;
7573;SDS011;3828;48.922;9.116;2023-05-07T01:59:50;1.10;;;1.10;;
7573;SDS011;3828;48.922;9.116;2023-05-07T02:02:18;0.93;;;0.93;;
7573;SDS011;3828;48.922;9.116;2023-05-07T02:04:45;1.50;;;1.50;;
7573;SDS011;3828;48.922;9.116;2023-05-07T02:07:12;1.00;;;1.00;;
7573;SDS011;3828;48.922;9.116;2023-05-07T02:09:39;1.10;;;1.10;;
7573;SDS011;3828;48.922;9.116;2023-05-07T02:12:06;1.00;;;1.00;;
7573;SDS011;3828;48.922;9.116;2023-05-07T02:14:34;1.03;;;1.03;;
7573;SDS011;3828;48.922;9.116;2023-05-07T02:17:01;1.37;;;1.37;;
7573;SDS011;3828;48.922;9.116;2023-05-07T02:19:28;0.90;;;0.90;;
7573;SDS011;3828;48.922;9.116;2023-05-07T02:21:55;0.93;;;0.93;;
7573;SDS011;3828;48.922;9.116;2023-05-07T02:24:23;0.77;;;0.77;;
7573;SDS011;3828;48.922;9.116;2023-05-07T02:26:50;0.90;;;0.90;;
7573;SDS011;3828;48.922;9.116;2023-05-07T02:29:17;0.93;;;0.93;;
7573;SDS011;3828;48.922;9.116;2023-05-07T02:31:45;0.77;;;0.77;;
7573;SDS011;3828;48.922;9.116;2023-05-07T02:34:15;0.80;;;0.80;;
7573;SDS011;3828;48.922;9.116;2023-05-07T02:36:42;0.80;;;0.80;;
7573;SDS011;3828;48.922;9.116;2023-05-07T02:39:11;0.73;;;0.73;;
7573;SDS011;3828;48.922;9.116;2023-05-07T02:41:38;0.80;;;0.80;;
7573;SDS011;3828;48.922;9.116;2023-05-07T02:44:05;0.97;;;0.97;;
7573;SDS011;3828;48.922;9.116;2023-05-07T02:46:32;0.70;;;0.70;;
7573;SDS011;3828;48.922;9.116;2023-05-07T02:49:01;0.90;;;0.90;;
7573;SDS011;3828;48.922;9.116;2023-05-07T02:51:29;0.80;;;0.80;;
7573;SDS011;3828;48.922;9.116;2023-05-07T02:53:56;0.90;;;0.90;;
7573;SDS011;3828;48.922;9.116;2023-05-07T02:56:25;1.10;;;1.10;;
7573;SDS011;3828;48.922;9.116;2023-05-07T02:58:52;0.80;;;0.80;;
7573;SDS011;3828;48.922;9.116;2023-05-07T03:01:19;0.83;;;0.83;;
7573;SDS011;3828;48.922;9.116;2023-05-07T03:03:46;0.70;;;0.70;;
7573;SDS011;3828;48.922;9.116;2023-05-07T03:06:14;0.90;;;0.90;;
7573;SDS011;3828;48.922;9.116;2023-05-07T03:08:41;0.90;;;0.90;;
7573;SDS011;3828;48.922;9.116;2023-05-07T03:11:08;1.10;;;1.10;;
7573;SDS011;3828;48.922;9.116;2023-05-07T03:13:35;0.70;;;0.70;;
7573;SDS011;3828;48.922;9.116;2023-05-07T03:16:02;0.80;;;0.80;;
7573;SDS011;3828;48.922;9.116;2023-05-07T03:18:29;0.80;;;0.80;;
7573;SDS011;3828;48.922;9.116;2023-05-07T03:20:56;0.80;;;0.80;;
7573;SDS011;3828;48.922;9.116;2023-05-07T03:23:25;0.80;;;0.80;;
7573;SDS011;3828;48.922;9.116;2023-05-07T03:25:52;0.90;;;0.90;;
7573;SDS011;3828;48.922;9.116;2023-05-07T03:28:19;0.90;;;0.90;;
7573;SDS011;3828;48.922;9.116;2023-05-07T03:30:46;0.80;;;0.80;;
7573;SDS011;3828;48.922;9.116;2023-05-07T03:33:13;0.80;;;0.80;;
7573;SDS011;3828;48.922;9.116;2023-05-07T03:35:40;0.97;;;0.97;;
7573;SDS011;3828;48.922;9.116;2023-05-07T03:38:07;0.80;;;0.80;;
7573;SDS011;3828;48.922;9.116;2023-05-07T03:40:36;0.80;;;0.80;;
7573;SDS011;3828;48.922;9.116;2023-05-07T03:43:02;0.80;;;0.80;;
7573;SDS011;3828;48.922;9.116;2023-05-07T03:45:30;0.80;;;0.80;;
7573;SDS011;3828;48.922;9.116;2023-05-07T03:47:57;0.70;;;0.70;;
7573;SDS011;3828;48.922;9.116;2023-05-07T03:50:24;0.80;;;0.80;;
7573;SDS011;3828;48.922;9.116;2023-05-07T03:52:51;0.80;;;0.80;;
7573;SDS011;3828;48.922;9.116;2023-05-07T03:55:18;0.73;;;0.73;;
7573;SDS011;3828;48.922;9.116;2023-05-07T03:57:47;0.93;;;0.93;;
7573;SDS011;3828;48.922;9.116;2023-05-07T04:00:13;1.00;;;1.00;;
7573;SDS011;3828;48.922;9.116;2023-05-07T04:02:41;0.83;;;0.83;;
7573;SDS011;3828;48.922;9.116;2023-05-07T04:05:08;0.97;;;0.97;;
7573;SDS011;3828;48.922;9.116;2023-05-07T04:07:35;0.70;;;0.70;;
7573;SDS011;3828;48.922;9.116;2023-05-07T04:10:02;0.80;;;0.80;;
7573;SDS011;3828;48.922;9.116;2023-05-07T04:12:29;0.70;;;0.70;;
7573;SDS011;3828;48.922;9.116;2023-05-07T04:14:58;0.80;;;0.80;;
7573;SDS011;3828;48.922;9.116;2023-05-07T04:17:25;0.80;;;0.80;;
7573;SDS011;3828;48.922;9.116;2023-05-07T04:19:52;0.80;;;0.80;;
7573;SDS011;3828;48.922;9.116;2023-05-07T04:22:19;0.80;;;0.80;;
7573;SDS011;3828;48.922;9.116;2023-05-07T04:24:46;0.80;;;0.80;;
7573;SDS011;3828;48.922;9.116;2023-05-07T04:27:13;0.90;;;0.90;;
7573;SDS011;3828;48.922;9.116;2023-05-07T04:29:40;0.80;;;0.80;;
7573;SDS011;3828;48.922;9.116;2023-05-07T04:32:13;0.90;;;0.90;;
7573;SDS011;3828;48.922;9.116;2023-05-07T04:34:40;1.10;;;1.10;;
7573;SDS011;3828;48.922;9.116;2023-05-07T04:37:06;0.90;;;0.90;;
7573;SDS011;3828;48.922;9.116;2023-05-07T04:39:34;0.80;;;0.80;;
7573;SDS011;3828;48.922;9.116;2023-05-07T04:42:01;1.00;;;1.00;;
7573;SDS011;3828;48.922;9.116;2023-05-07T04:44:29;1.10;;;1.10;;
7573;SDS011;3828;48.922;9.116;2023-05-07T04:46:57;0.93;;;0.93;;
7573;SDS011;3828;48.922;9.116;2023-05-07T04:49:25;0.90;;;0.90;;
7573;SDS011;3828;48.922;9.116;2023-05-07T04:51:54;0.80;;;0.80;;
7573;SDS011;3828;48.922;9.116;2023-05-07T04:54:21;0.90;;;0.90;;
7573;SDS011;3828;48.922;9.116;2023-05-07T04:56:48;1.07;;;1.07;;
7573;SDS011;3828;48.922;9.116;2023-05-07T04:59:15;0.80;;;0.80;;
7573;SDS011;3828;48.922;9.116;2023-05-07T05:01:43;0.73;;;0.73;;
7573;SDS011;3828;48.922;9.116;2023-05-07T05:04:10;0.80;;;0.80;;
7573;SDS011;3828;48.922;9.116;2023-05-07T05:06:39;0.70;;;0.70;;
7573;SDS011;3828;48.922;9.116;2023-05-07T05:09:06;0.70;;;0.70;;
7573;SDS011;3828;48.922;9.116;2023-05-07T05:11:33;0.90;;;0.90;;
7573;SDS011;3828;48.922;9.116;2023-05-07T05:14:00;0.70;;;0.70;;
7573;SDS011;3828;48.922;9.116;2023-05-07T05:16:27;0.80;;;0.80;;
7573;SDS011;3828;48.922;9.116;2023-05-07T05:18:54;0.80;;;0.80;;
7573;SDS011;3828;48.922;9.116;2023-05-07T05:21:21;0.70;;;0.70;;
7573;SDS011;3828;48.922;9.116;2023-05-07T05:23:49;0.90;;;0.90;;
7573;SDS011;3828;48.922;9.116;2023-05-07T05:26:16;0.80;;;0.80;;
7573;SDS011;3828;48.922;9.116;2023-05-07T05:28:43;0.90;;;0.90;;
7573;SDS011;3828;48.922;9.116;2023-05-07T05:31:14;0.80;;;0.80;;
7573;SDS011;3828;48.922;9.116;2023-05-07T05:33:41;1.10;;;1.10;;
7573;SDS011;3828;48.922;9.116;2023-05-07T05:36:09;0.80;;;0.80;;
7573;SDS011;3828;48.922;9.116;2023-05-07T05:38:35;1.00;;;1.00;;
7573;SDS011;3828;48.922;9.116;2023-05-07T05:41:04;0.73;;;0.73;;
7573;SDS011;3828;48.922;9.116;2023-05-07T05:43:31;1.00;;;1.00;;
7573;SDS011;3828;48.922;9.116;2023-05-07T05:45:58;0.63;;;0.63;;
7573;SDS011;3828;48.922;9.116;2023-05-07T05:48:25;0.87;;;0.87;;
7573;SDS011;3828;48.922;9.116;2023-05-07T05:50:52;0.80;;;0.80;;
7573;SDS011;3828;48.922;9.116;2023-05-07T05:53:23;0.90;;;0.90;;
7573;SDS011;3828;48.922;9.116;2023-05-07T05:55:50;0.70;;;0.70;;
7573;SDS011;3828;48.922;9.116;2023-05-07T05:58:19;0.87;;;0.87;;
7573;SDS011;3828;48.922;9.116;2023-05-07T06:00:46;0.70;;;0.70;;
7573;SDS011;3828;48.922;9.116;2023-05-07T06:03:13;0.80;;;0.80;;
7573;SDS011;3828;48.922;9.116;2023-05-07T06:05:40;0.70;;;0.70;;
7573;SDS011;3828;48.922;9.116;2023-05-07T06:08:07;0.90;;;0.90;;
7573;SDS011;3828;48.922;9.116;2023-05-07T06:10:35;0.70;;;0.70;;
7573;SDS011;3828;48.922;9.116;2023-05-07T06:13:02;0.70;;;0.70;;
7573;SDS011;3828;48.922;9.116;2023-05-07T06:15:30;0.67;;;0.67;;
7573;SDS011;3828;48.922;9.116;2023-05-07T06:17:57;0.60;;;0.60;;
7573;SDS011;3828;48.922;9.116;2023-05-07T06:20:24;0.70;;;0.70;;
7573;SDS011;3828;48.922;9.116;2023-05-07T06:22:51;0.70;;;0.70;;
7573;SDS011;3828;48.922;9.116;2023-05-07T06:25:18;0.87;;;0.87;;
7573;SDS011;3828;48.922;9.116;2023-05-07T06:27:45;0.70;;;0.70;;
7573;SDS011;3828;48.922;9.116;2023-05-07T06:30:12;0.60;;;0.60;;
7573;SDS011;3828;48.922;9.116;2023-05-07T06:32:41;0.50;;;0.50;;
7573;SDS011;3828;48.922;9.116;2023-05-07T06:35:08;0.70;;;0.70;;
7573;SDS011;3828;48.922;9.116;2023-05-07T06:37:35;0.60;;;0.60;;
7573;SDS011;3828;48.922;9.116;2023-05-07T06:40:03;0.70;;;0.70;;
7573;SDS011;3828;48.922;9.116;2023-05-07T06:42:32;0.70;;;0.70;;
7573;SDS011;3828;48.922;9.116;2023-05-07T06:44:59;0.70;;;0.70;;
7573;SDS011;3828;48.922;9.116;2023-05-07T06:47:26;0.60;;;0.60;;
7573;SDS011;3828;48.922;9.116;2023-05-07T06:49:54;0.70;;;0.70;;
7573;SDS011;3828;48.922;9.116;2023-05-07T06:52:21;0.60;;;0.60;;
7573;SDS011;3828;48.922;9.116;2023-05-07T06:54:48;1.00;;;1.00;;
7573;SDS011;3828;48.922;9.116;2023-05-07T06:57:15;0.50;;;0.50;;
7573;SDS011;3828;48.922;9.116;2023-05-07T06:59:42;0.80;;;0.80;;
7573;SDS011;3828;48.922;9.116;2023-05-07T07:02:09;0.60;;;0.60;;
7573;SDS011;3828;48.922;9.116;2023-05-07T07:04:36;0.60;;;0.60;;
7573;SDS011;3828;48.922;9.116;2023-05-07T07:07:05;0.60;;;0.60;;
7573;SDS011;3828;48.922;9.116;2023-05-07T07:09:32;0.70;;;0.70;;
7573;SDS011;3828;48.922;9.116;2023-05-07T07:11:59;0.50;;;0.50;;
7573;SDS011;3828;48.922;9.116;2023-05-07T07:14:26;0.63;;;0.63;;
7573;SDS011;3828;48.922;9.116;2023-05-07T07:16:53;0.50;;;0.50;;
7573;SDS011;3828;48.922;9.116;2023-05-07T07:19:20;0.60;;;0.60;;
7573;SDS011;3828;48.922;9.116;2023-05-07T07:21:47;0.50;;;0.50;;
7573;SDS011;3828;48.922;9.116;2023-05-07T07:24:15;0.77;;;0.77;;
7573;SDS011;3828;48.922;9.116;2023-05-07T07:26:46;0.50;;;0.50;;
7573;SDS011;3828;48.922;9.116;2023-05-07T07:29:13;0.50;;;0.50;;
7573;SDS011;3828;48.922;9.116;2023-05-07T07:31:40;0.50;;;0.50;;
7573;SDS011;3828;48.922;9.116;2023-05-07T07:34:07;0.50;;;0.50;;
7573;SDS011;3828;48.922;9.116;2023-05-07T07:36:34;0.40;;;0.40;;
7573;SDS011;3828;48.922;9.116;2023-05-07T07:39:03;0.43;;;0.43;;
7573;SDS011;3828;48.922;9.116;2023-05-07T07:41:32;0.40;;;0.40;;
7573;SDS011;3828;48.922;9.116;2023-05-07T07:43:59;0.30;;;0.30;;
7573;SDS011;3828;48.922;9.116;2023-05-07T07:46:26;0.40;;;0.40;;
7573;SDS011;3828;48.922;9.116;2023-05-07T07:48:53;0.40;;;0.40;;
7573;SDS011;3828;48.922;9.116;2023-05-07T07:51:20;0.40;;;0.40;;
7573;SDS011;3828;48.922;9.116;2023-05-07T07:53:47;0.43;;;0.43;;
7573;SDS011;3828;48.922;9.116;2023-05-07T07:56:14;0.40;;;0.40;;
7573;SDS011;3828;48.922;9.116;2023-05-07T07:58:42;0.30;;;0.30;;
7573;SDS011;3828;48.922;9.116;2023-05-07T08:01:08;0.47;;;0.47;;
7573;SDS011;3828;48.922;9.116;2023-05-07T08:03:37;0.40;;;0.40;;
7573;SDS011;3828;48.922;9.116;2023-05-07T08:06:04;0.47;;;0.47;;
7573;SDS011;3828;48.922;9.116;2023-05-07T08:08:31;0.50;;;0.50;;
7573;SDS011;3828;48.922;9.116;2023-05-07T08:10:58;0.60;;;0.60;;
7573;SDS011;3828;48.922;9.116;2023-05-07T08:13:25;0.30;;;0.30;;
7573;SDS011;3828;48.922;9.116;2023-05-07T08:15:54;0.70;;;0.70;;
7573;SDS011;3828;48.922;9.116;2023-05-07T08:18:23;0.40;;;0.40;;
7573;SDS011;3828;48.922;9.116;2023-05-07T08:20:50;0.50;;;0.50;;
7573;SDS011;3828;48.922;9.116;2023-05-07T08:23:17;0.40;;;0.40;;
7573;SDS011;3828;48.922;9.116;2023-05-07T08:25:44;0.40;;;0.40;;
7573;SDS011;3828;48.922;9.116;2023-05-07T08:28:11;0.40;;;0.40;;
7573;SDS011;3828;48.922;9.116;2023-05-07T08:30:40;0.43;;;0.43;;
7573;SDS011;3828;48.922;9.116;2023-05-07T08:33:09;0.40;;;0.40;;
7573;SDS011;3828;48.922;9.116;2023-05-07T08:35:36;0.40;;;0.40;;
7573;SDS011;3828;48.922;9.116;2023-05-07T08:38:03;0.40;;;0.40;;
7573;SDS011;3828;48.922;9.116;2023-05-07T08:40:29;0.40;;;0.40;;
7573;SDS011;3828;48.922;9.116;2023-05-07T08:43:02;0.40;;;0.40;;
7573;SDS011;3828;48.922;9.116;2023-05-07T08:45:31;0.40;;;0.40;;
7573;SDS011;3828;48.922;9.116;2023-05-07T08:48:01;0.40;;;0.40;;
7573;SDS011;3828;48.922;9.116;2023-05-07T08:50:30;0.40;;;0.40;;
7573;SDS011;3828;48.922;9.116;2023-05-07T08:53:02;0.40;;;0.40;;
7573;SDS011;3828;48.922;9.116;2023-05-07T08:55:29;0.30;;;0.30;;
7573;SDS011;3828;48.922;9.116;2023-05-07T08:58:04;0.60;;;0.60;;
7573;SDS011;3828;48.922;9.116;2023-05-07T09:01:25;0.47;;;0.47;;
7573;SDS011;3828;48.922;9.116;2023-05-07T09:03:53;0.40;;;0.40;;
7573;SDS011;3828;48.922;9.116;2023-05-07T09:06:22;0.70;;;0.70;;
7573;SDS011;3828;48.922;9.116;2023-05-07T09:08:51;0.40;;;0.40;;
7573;SDS011;3828;48.922;9.116;2023-05-07T09:11:19;0.70;;;0.70;;
7573;SDS011;3828;48.922;9.116;2023-05-07T09:13:47;0.30;;;0.30;;
7573;SDS011;3828;48.922;9.116;2023-05-07T09:16:15;0.40;;;0.40;;
7573;SDS011;3828;48.922;9.116;2023-05-07T09:18:42;0.40;;;0.40;;
7573;SDS011;3828;48.922;9.116;2023-05-07T09:21:10;0.30;;;0.30;;
7573;SDS011;3828;48.922;9.116;2023-05-07T09:23:39;0.30;;;0.30;;
7573;SDS011;3828;48.922;9.116;2023-05-07T09:26:06;0.37;;;0.37;;
7573;SDS011;3828;48.922;9.116;2023-05-07T09:28:37;0.30;;;0.30;;
7573;SDS011;3828;48.922;9.116;2023-05-07T09:31:06;0.40;;;0.40;;
7573;SDS011;3828;48.922;9.116;2023-05-07T09:33:38;0.30;;;0.30;;
7573;SDS011;3828;48.922;9.116;2023-05-07T09:36:08;0.30;;;0.30;;
7573;SDS011;3828;48.922;9.116;2023-05-07T09:38:36;0.53;;;0.53;;
7573;SDS011;3828;48.922;9.116;2023-05-07T09:41:05;0.50;;;0.50;;
7573;SDS011;3828;48.922;9.116;2023-05-07T09:43:33;0.63;;;0.63;;
7573;SDS011;3828;48.922;9.116;2023-05-07T09:46:05;0.33;;;0.33;;
7573;SDS011;3828;48.922;9.116;2023-05-07T09:48:35;0.30;;;0.30;;
7573;SDS011;3828;48.922;9.116;2023-05-07T09:51:06;0.40;;;0.40;;
7573;SDS011;3828;48.922;9.116;2023-05-07T09:53:44;0.30;;;0.30;;
7573;SDS011;3828;48.922;9.116;2023-05-07T09:56:12;0.20;;;0.20;;
7573;SDS011;3828;48.922;9.116;2023-05-07T09:58:40;0.20;;;0.20;;
7573;SDS011;3828;48.922;9.116;2023-05-07T10:01:08;0.40;;;0.40;;
7573;SDS011;3828;48.922;9.116;2023-05-07T10:03:36;0.30;;;0.30;;
7573;SDS011;3828;48.922;9.116;2023-05-07T10:06:05;0.30;;;0.30;;
7573;SDS011;3828;48.922;9.116;2023-05-07T10:08:34;0.30;;;0.30;;
7573;SDS011;3828;48.922;9.116;2023-05-07T10:11:03;0.37;;;0.37;;
7573;SDS011;3828;48.922;9.116;2023-05-07T10:13:31;0.50;;;0.50;;
7573;SDS011;3828;48.922;9.116;2023-05-07T10:16:01;0.20;;;0.20;;
7573;SDS011;3828;48.922;9.116;2023-05-07T10:18:28;0.20;;;0.20;;
7573;SDS011;3828;48.922;9.116;2023-05-07T10:20:58;0.33;;;0.33;;
7573;SDS011;3828;48.922;9.116;2023-05-07T10:23:32;0.20;;;0.20;;
7573;SDS011;3828;48.922;9.116;2023-05-07T10:26:00;0.50;;;0.50;;
7573;SDS011;3828;48.922;9.116;2023-05-07T10:28:31;0.30;;;0.30;;
7573;SDS011;3828;48.922;9.116;2023-05-07T10:31:07;0.37;;;0.37;;
7573;SDS011;3828;48.922;9.116;2023-05-07T10:33:40;0.40;;;0.40;;
7573;SDS011;3828;48.922;9.116;2023-05-07T10:36:10;0.20;;;0.20;;
7573;SDS011;3828;48.922;9.116;2023-05-07T10:38:38;0.30;;;0.30;;
7573;SDS011;3828;48.922;9.116;2023-05-07T10:41:07;0.20;;;0.20;;
7573;SDS011;3828;48.922;9.116;2023-05-07T10:43:38;0.30;;;0.30;;
7573;SDS011;3828;48.922;9.116;2023-05-07T10:46:10;0.20;;;0.20;;
7573;SDS011;3828;48.922;9.116;2023-05-07T10:51:46;0.30;;;0.30;;
7573;SDS011;3828;48.922;9.116;2023-05-07T10:54:41;0.23;;;0.23;;
7573;SDS011;3828;48.922;9.116;2023-05-07T10:57:33;0.47;;;0.47;;
7573;SDS011;3828;48.922;9.116;2023-05-07T11:00:02;0.60;;;0.60;;
7573;SDS011;3828;48.922;9.116;2023-05-07T11:05:32;0.30;;;0.30;;
7573;SDS011;3828;48.922;9.116;2023-05-07T11:08:00;0.40;;;0.40;;
7573;SDS011;3828;48.922;9.116;2023-05-07T11:13:17;0.23;;;0.23;;
7573;SDS011;3828;48.922;9.116;2023-05-07T11:15:45;0.40;;;0.40;;
7573;SDS011;3828;48.922;9.116;2023-05-07T11:18:13;0.57;;;0.57;;
7573;SDS011;3828;48.922;9.116;2023-05-07T11:20:44;0.77;;;0.77;;
7573;SDS011;3828;48.922;9.116;2023-05-07T11:26:41;0.40;;;0.40;;
7573;SDS011;3828;48.922;9.116;2023-05-07T11:29:11;0.30;;;0.30;;
7573;SDS011;3828;48.922;9.116;2023-05-07T11:31:39;0.30;;;0.30;;
7573;SDS011;3828;48.922;9.116;2023-05-07T11:34:06;0.37;;;0.37;;
7573;SDS011;3828;48.922;9.116;2023-05-07T11:36:33;0.30;;;0.30;;
7573;SDS011;3828;48.922;9.116;2023-05-07T11:39:00;0.40;;;0.40;;
7573;SDS011;3828;48.922;9.116;2023-05-07T11:41:34;0.40;;;0.40;;
7573;SDS011;3828;48.922;9.116;2023-05-07T11:44:01;0.20;;;0.20;;
7573;SDS011;3828;48.922;9.116;2023-05-07T11:46:30;0.63;;;0.63;;
7573;SDS011;3828;48.922;9.116;2023-05-07T11:48:58;1.00;;;1.00;;
7573;SDS011;3828;48.922;9.116;2023-05-07T11:51:25;0.53;;;0.53;;
7573;SDS011;3828;48.922;9.116;2023-05-07T11:53:55;0.40;;;0.40;;
7573;SDS011;3828;48.922;9.116;2023-05-07T11:56:22;0.50;;;0.50;;
7573;SDS011;3828;48.922;9.116;2023-05-07T11:58:49;0.40;;;0.40;;
7573;SDS011;3828;48.922;9.116;2023-05-07T12:01:17;0.80;;;0.80;;
7573;SDS011;3828;48.922;9.116;2023-05-07T12:03:45;0.90;;;0.90;;
7573;SDS011;3828;48.922;9.116;2023-05-07T12:06:14;0.60;;;0.60;;
7573;SDS011;3828;48.922;9.116;2023-05-07T12:08:42;0.30;;;0.30;;
7573;SDS011;3828;48.922;9.116;2023-05-07T12:11:09;0.90;;;0.90;;
7573;SDS011;3828;48.922;9.116;2023-05-07T12:13:39;0.63;;;0.63;;
7573;SDS011;3828;48.922;9.116;2023-05-07T12:16:06;0.70;;;0.70;;
7573;SDS011;3828;48.922;9.116;2023-05-07T12:18:52;0.70;;;0.70;;
7573;SDS011;3828;48.922;9.116;2023-05-07T12:21:20;0.50;;;0.50;;
7573;SDS011;3828;48.922;9.116;2023-05-07T12:23:47;0.37;;;0.37;;
7573;SDS011;3828;48.922;9.116;2023-05-07T12:26:14;0.40;;;0.40;;
7573;SDS011;3828;48.922;9.116;2023-05-07T12:28:41;0.60;;;0.60;;
7573;SDS011;3828;48.922;9.116;2023-05-07T12:31:08;0.90;;;0.90;;
7573;SDS011;3828;48.922;9.116;2023-05-07T12:33:36;0.70;;;0.70;;
7573;SDS011;3828;48.922;9.116;2023-05-07T12:36:05;1.33;;;1.33;;
7573;SDS011;3828;48.922;9.116;2023-05-07T12:38:36;0.60;;;0.60;;
7573;SDS011;3828;48.922;9.116;2023-05-07T12:41:05;0.50;;;0.50;;
7573;SDS011;3828;48.922;9.116;2023-05-07T12:43:33;0.40;;;0.40;;
7573;SDS011;3828;48.922;9.116;2023-05-07T12:46:01;0.60;;;0.60;;
7573;SDS011;3828;48.922;9.116;2023-05-07T12:48:30;0.60;;;0.60;;
7573;SDS011;3828;48.922;9.116;2023-05-07T12:50:57;0.40;;;0.40;;
7573;SDS011;3828;48.922;9.116;2023-05-07T12:53:26;0.50;;;0.50;;
7573;SDS011;3828;48.922;9.116;2023-05-07T12:55:54;0.60;;;0.60;;
7573;SDS011;3828;48.922;9.116;2023-05-07T12:58:23;0.40;;;0.40;;
7573;SDS011;3828;48.922;9.116;2023-05-07T13:00:51;0.93;;;0.93;;
7573;SDS011;3828;48.922;9.116;2023-05-07T13:03:22;0.70;;;0.70;;
7573;SDS011;3828;48.922;9.116;2023-05-07T13:05:51;0.60;;;0.60;;
7573;SDS011;3828;48.922;9.116;2023-05-07T13:08:39;0.50;;;0.50;;
7573;SDS011;3828;48.922;9.116;2023-05-07T13:11:08;0.70;;;0.70;;
7573;SDS011;3828;48.922;9.116;2023-05-07T13:13:36;0.70;;;0.70;;
7573;SDS011;3828;48.922;9.116;2023-05-07T13:16:04;0.77;;;0.77;;
7573;SDS011;3828;48.922;9.116;2023-05-07T13:18:32;1.00;;;1.00;;
7573;SDS011;3828;48.922;9.116;2023-05-07T13:21:00;0.60;;;0.60;;
7573;SDS011;3828;48.922;9.116;2023-05-07T13:23:29;0.80;;;0.80;;
7573;SDS011;3828;48.922;9.116;2023-05-07T13:25:56;0.53;;;0.53;;
7573;SDS011;3828;48.922;9.116;2023-05-07T13:28:23;0.50;;;0.50;;
7573;SDS011;3828;48.922;9.116;2023-05-07T13:30:50;1.00;;;1.00;;
7573;SDS011;3828;48.922;9.116;2023-05-07T13:33:18;0.70;;;0.70;;
7573;SDS011;3828;48.922;9.116;2023-05-07T13:35:45;1.27;;;1.27;;
7573;SDS011;3828;48.922;9.116;2023-05-07T13:38:12;0.60;;;0.60;;
7573;SDS011;3828;48.922;9.116;2023-05-07T13:40:42;1.20;;;1.20;;
7573;SDS011;3828;48.922;9.116;2023-05-07T13:43:09;0.87;;;0.87;;
7573;SDS011;3828;48.922;9.116;2023-05-07T13:45:36;0.70;;;0.70;;
7573;SDS011;3828;48.922;9.116;2023-05-07T13:48:03;0.73;;;0.73;;
7573;SDS011;3828;48.922;9.116;2023-05-07T13:50:30;0.60;;;0.60;;
7573;SDS011;3828;48.922;9.116;2023-05-07T13:52:57;0.60;;;0.60;;
7573;SDS011;3828;48.922;9.116;2023-05-07T13:55:25;0.70;;;0.70;;
7573;SDS011;3828;48.922;9.116;2023-05-07T13:57:56;0.60;;;0.60;;
7573;SDS011;3828;48.922;9.116;2023-05-07T14:00:24;0.70;;;0.70;;
7573;SDS011;3828;48.922;9.116;2023-05-07T14:02:52;0.80;;;0.80;;
7573;SDS011;3828;48.922;9.116;2023-05-07T14:05:19;0.70;;;0.70;;
7573;SDS011;3828;48.922;9.116;2023-05-07T14:07:48;0.60;;;0.60;;
7573;SDS011;3828;48.922;9.116;2023-05-07T14:10:16;0.60;;;0.60;;
7573;SDS011;3828;48.922;9.116;2023-05-07T14:12:43;0.80;;;0.80;;
7573;SDS011;3828;48.922;9.116;2023-05-07T14:15:12;0.80;;;0.80;;
7573;SDS011;3828;48.922;9.116;2023-05-07T14:17:39;0.73;;;0.73;;
7573;SDS011;3828;48.922;9.116;2023-05-07T14:20:06;0.60;;;0.60;;
7573;SDS011;3828;48.922;9.116;2023-05-07T14:22:35;0.80;;;0.80;;
7573;SDS011;3828;48.922;9.116;2023-05-07T14:25:02;0.70;;;0.70;;
7573;SDS011;3828;48.922;9.116;2023-05-07T14:27:29;0.73;;;0.73;;
7573;SDS011;3828;48.922;9.116;2023-05-07T14:29:56;0.87;;;0.87;;
7573;SDS011;3828;48.922;9.116;2023-05-07T14:32:25;1.00;;;1.00;;
7573;SDS011;3828;48.922;9.116;2023-05-07T14:34:52;0.80;;;0.80;;
7573;SDS011;3828;48.922;9.116;2023-05-07T14:37:19;0.90;;;0.90;;
7573;SDS011;3828;48.922;9.116;2023-05-07T14:39:46;0.70;;;0.70;;
7573;SDS011;3828;48.922;9.116;2023-05-07T14:45:39;0.60;;;0.60;;
7573;SDS011;3828;48.922;9.116;2023-05-07T14:48:07;0.60;;;0.60;;
7573;SDS011;3828;48.922;9.116;2023-05-07T14:50:43;0.70;;;0.70;;
7573;SDS011;3828;48.922;9.116;2023-05-07T14:53:10;0.90;;;0.90;;
7573;SDS011;3828;48.922;9.116;2023-05-07T14:55:52;0.60;;;0.60;;
7573;SDS011;3828;48.922;9.116;2023-05-07T14:58:20;0.80;;;0.80;;
7573;SDS011;3828;48.922;9.116;2023-05-07T15:00:48;0.70;;;0.70;;
7573;SDS011;3828;48.922;9.116;2023-05-07T15:03:18;0.70;;;0.70;;
7573;SDS011;3828;48.922;9.116;2023-05-07T15:05:45;0.80;;;0.80;;
7573;SDS011;3828;48.922;9.116;2023-05-07T15:08:12;0.70;;;0.70;;
7573;SDS011;3828;48.922;9.116;2023-05-07T15:10:39;0.70;;;0.70;;
7573;SDS011;3828;48.922;9.116;2023-05-07T15:13:06;0.80;;;0.80;;
7573;SDS011;3828;48.922;9.116;2023-05-07T15:15:34;0.80;;;0.80;;
7573;SDS011;3828;48.922;9.116;2023-05-07T15:18:00;0.93;;;0.93;;
7573;SDS011;3828;48.922;9.116;2023-05-07T15:20:29;0.70;;;0.70;;
7573;SDS011;3828;48.922;9.116;2023-05-07T15:22:56;0.70;;;0.70;;
7573;SDS011;3828;48.922;9.116;2023-05-07T15:25:23;0.77;;;0.77;;
7573;SDS011;3828;48.922;9.116;2023-05-07T15:27:50;0.70;;;0.70;;
7573;SDS011;3828;48.922;9.116;2023-05-07T15:30:17;0.70;;;0.70;;
7573;SDS011;3828;48.922;9.116;2023-05-07T15:32:45;0.93;;;0.93;;
7573;SDS011;3828;48.922;9.116;2023-05-07T15:35:12;0.80;;;0.80;;
7573;SDS011;3828;48.922;9.116;2023-05-07T15:37:40;0.70;;;0.70;;